Time;durP1;ratioP1;P1;durP2;ratioP2;P2;SDS_P1;SDS_P2;PMS_P1;PMS_P2;Temp;Humidity;BMP_temperature;BMP_pressure;BME280_temperature;BME280_humidity;BME280_pressure;Samples;Min_cycle;Max_cycle;Signal;HPM_P1;HPM_P2
2022/04/20 00:02:04;;;;;;;3.50;3.30;;;;;;;5.58;100.00;99325.88;5111369;28;20195;-62
2022/04/20 00:04:32;;;;;;;4.17;3.50;;;;;;;5.55;100.00;99318.28;5110988;28;20655;-62
2022/04/20 00:06:59;;;;;;;3.77;3.50;;;;;;;5.55;100.00;99316.56;5111288;28;20209;-62
2022/04/20 00:09:26;;;;;;;3.83;3.57;;;;;;;5.56;100.00;99313.16;5111036;28;20278;-63
2022/04/20 00:11:53;;;;;;;3.60;3.17;;;;;;;5.51;100.00;99309.84;5113841;28;20650;-62
2022/04/20 00:14:20;;;;;;;3.50;3.40;;;;;;;5.50;100.00;99312.38;5111710;28;20210;-62
2022/04/20 00:16:46;;;;;;;3.27;3.07;;;;;;;5.47;100.00;99317.50;5115832;28;20535;-62
2022/04/20 00:19:13;;;;;;;3.37;3.17;;;;;;;5.45;100.00;99327.69;5115786;28;20682;-63
2022/04/20 00:21:42;;;;;;;3.60;3.37;;;;;;;5.46;100.00;99328.56;5115285;28;20209;-63
2022/04/20 00:24:09;;;;;;;3.23;3.03;;;;;;;5.44;100.00;99333.63;5115302;28;20642;-63
2022/04/20 00:26:36;;;;;;;3.10;3.00;;;;;;;5.42;100.00;99337.06;5115049;28;20277;-63
2022/04/20 00:29:03;;;;;;;3.47;3.37;;;;;;;5.38;100.00;99336.25;5115504;28;20285;-62
2022/04/20 00:31:29;;;;;;;3.03;2.87;;;;;;;5.36;100.00;99340.50;5115239;28;20237;-63
2022/04/20 00:33:56;;;;;;;3.47;3.27;;;;;;;5.36;100.00;99339.66;5113606;28;20313;-62
2022/04/20 00:36:23;;;;;;;3.03;2.93;;;;;;;5.36;100.00;99332.03;5115193;28;20674;-62
2022/04/20 00:38:52;;;;;;;6.40;3.30;;;;;;;5.35;100.00;99343.06;5114176;28;20218;-62
2022/04/20 00:41:18;;;;;;;4.20;2.87;;;;;;;5.32;100.00;99341.41;5114536;28;20289;-62
2022/04/20 00:43:45;;;;;;;2.97;2.87;;;;;;;5.28;100.00;99335.50;5114995;28;20215;-63
2022/04/20 00:46:13;;;;;;;2.97;2.87;;;;;;;5.25;100.00;99343.16;5112115;28;20574;-62
2022/04/20 00:48:41;;;;;;;3.03;2.93;;;;;;;5.20;100.00;99337.25;5114968;28;20285;-63
2022/04/20 00:51:08;;;;;;;2.90;2.80;;;;;;;5.15;100.00;99336.47;5115162;28;20663;-62
2022/04/20 00:53:36;;;;;;;2.60;2.50;;;;;;;5.14;100.00;99331.38;5115224;28;20717;-62
2022/04/20 00:56:04;;;;;;;2.80;2.70;;;;;;;5.13;100.00;99335.66;5114411;28;20214;-62
2022/04/20 00:58:31;;;;;;;3.00;2.90;;;;;;;5.09;100.00;99331.44;5114776;28;20206;-62
2022/04/20 01:00:58;;;;;;;2.83;2.73;;;;;;;5.08;100.00;99336.53;5114475;28;20206;-63
2022/04/20 01:03:26;;;;;;;2.80;2.70;;;;;;;5.04;100.00;99330.63;5114817;28;20598;-62
2022/04/20 01:05:53;;;;;;;5.00;2.93;;;;;;;5.04;100.00;99328.09;5114164;28;20198;-63
2022/04/20 01:08:20;;;;;;;3.07;2.97;;;;;;;4.99;100.00;99329.84;5114324;28;20195;-63
2022/04/20 01:10:47;;;;;;;2.80;2.70;;;;;;;5.03;100.00;99336.59;5114503;28;20226;-63
2022/04/20 01:13:15;;;;;;;2.87;2.77;;;;;;;5.04;100.00;99335.72;5114392;28;20278;-63
2022/04/20 01:15:43;;;;;;;2.70;2.60;;;;;;;5.04;100.00;99338.25;5114200;28;20221;-63
2022/04/20 01:18:14;;;;;;;2.40;2.30;;;;;;;5.02;100.00;99329.81;5114229;28;20199;-63
2022/04/20 01:20:43;;;;;;;2.90;2.80;;;;;;;5.01;100.00;99330.66;5114479;28;20687;-63
2022/04/20 01:23:11;;;;;;;3.13;3.03;;;;;;;5.00;100.00;99328.16;5114055;28;20286;-63
2022/04/20 01:25:38;;;;;;;5.00;3.23;;;;;;;4.90;100.00;99309.63;5113338;28;20191;-63
2022/04/20 01:28:05;;;;;;;3.00;2.87;;;;;;;4.96;100.00;99319.72;5112580;28;20198;-63
2022/04/20 01:30:32;;;;;;;2.80;2.70;;;;;;;4.92;100.00;99302.81;5111158;28;20259;-63
2022/04/20 01:33:00;;;;;;;2.50;2.40;;;;;;;4.94;100.00;99313.81;5114087;28;20195;-64
2022/04/20 01:35:27;;;;;;;3.40;3.30;;;;;;;4.94;100.00;99316.38;5112050;28;20215;-63
2022/04/20 01:37:55;;;;;;;3.13;2.90;;;;;;;4.82;100.00;99306.28;5114077;28;20214;-63
2022/04/20 01:40:22;;;;;;;3.07;2.97;;;;;;;4.93;100.00;99322.28;5113348;28;20226;-63
2022/04/20 01:42:49;;;;;;;3.23;3.03;;;;;;;4.92;100.00;99324.81;5113912;28;20199;-63
2022/04/20 01:45:16;;;;;;;2.93;2.83;;;;;;;4.89;100.00;99328.25;5113598;28;20190;-63
2022/04/20 01:47:43;;;;;;;2.67;2.57;;;;;;;4.89;100.00;99325.69;5112915;28;20222;-63
2022/04/20 01:50:10;;;;;;;2.77;2.57;;;;;;;4.86;100.00;99318.09;5112768;28;20199;-63
2022/04/20 01:52:36;;;;;;;3.20;3.10;;;;;;;4.82;100.00;99316.44;5113190;28;20206;-63
2022/04/20 01:55:06;;;;;;;2.60;2.50;;;;;;;4.78;100.00;99312.28;5113412;28;20227;-63
2022/04/20 01:57:33;;;;;;;2.47;2.37;;;;;;;4.76;100.00;99319.03;5113259;28;20635;-63
2022/04/20 02:00:00;;;;;;;3.13;2.97;;;;;;;4.67;100.00;99312.34;5113404;28;20195;-63
2022/04/20 02:02:34;;;;;;;2.30;2.20;;;;;;;4.66;100.00;99314.88;5113381;28;20652;-63
2022/04/20 02:05:03;;;;;;;3.00;2.80;;;;;;;4.52;100.00;99282.00;5113689;28;20268;-63
2022/04/20 02:07:31;;;;;;;3.43;3.33;;;;;;;4.64;100.00;99311.53;5113547;28;20642;-63
2022/04/20 02:09:57;;;;;;;2.53;2.43;;;;;;;4.63;100.00;99322.53;5113486;28;20674;-63
2022/04/20 02:12:26;;;;;;;2.97;2.83;;;;;;;4.57;100.00;99297.19;5112965;28;20206;-63
2022/04/20 02:14:53;;;;;;;3.30;2.57;;;;;;;4.65;100.00;99314.03;5112179;28;20219;-63
2022/04/20 02:17:21;;;;;;;2.40;2.30;;;;;;;4.54;100.00;99294.69;5112923;28;20286;-63
2022/04/20 02:19:48;;;;;;;2.83;2.73;;;;;;;4.63;100.00;99302.22;5113045;28;20205;-63
2022/04/20 02:22:15;;;;;;;3.10;3.00;;;;;;;4.60;100.00;99309.84;5113206;28;20210;-63
2022/04/20 02:24:42;;;;;;;3.10;2.90;;;;;;;4.58;100.00;99317.50;5113070;28;20742;-63
2022/04/20 02:27:10;;;;;;;2.90;2.80;;;;;;;4.58;100.00;99316.66;5113377;28;20202;-63
2022/04/20 02:29:39;;;;;;;4.33;4.03;;;;;;;4.60;100.00;99314.94;5112875;28;20662;-63
2022/04/20 02:32:08;;;;;;;3.57;3.47;;;;;;;4.51;100.00;99309.94;5112928;28;20678;-63
2022/04/20 02:34:35;;;;;;;3.57;3.33;;;;;;;4.60;100.00;99312.41;5111815;28;20245;-63
2022/04/20 02:37:03;;;;;;;3.77;3.57;;;;;;;4.56;100.00;99328.50;5112255;28;20297;-63
2022/04/20 02:39:30;;;;;;;3.73;3.53;;;;;;;4.43;100.00;99321.81;5112430;28;20234;-64
2022/04/20 02:41:57;;;;;;;3.77;3.57;;;;;;;4.43;100.00;99329.44;5113089;28;20198;-63
2022/04/20 02:44:24;;;;;;;3.90;3.70;;;;;;;4.42;100.00;99325.22;5112723;28;20293;-62
2022/04/20 02:46:52;;;;;;;4.43;3.97;;;;;;;4.43;100.00;99324.34;5112572;28;20279;-63
2022/04/20 02:49:21;;;;;;;3.63;3.47;;;;;;;4.43;100.00;99330.28;5112402;28;20281;-63
2022/04/20 02:51:48;;;;;;;4.37;3.97;;;;;;;4.45;100.00;99335.38;5112146;28;20746;-63
2022/04/20 02:54:15;;;;;;;4.23;4.03;;;;;;;4.44;100.00;99328.59;5112478;28;20279;-63
2022/04/20 02:56:42;;;;;;;4.17;3.87;;;;;;;4.47;100.00;99331.09;5112217;28;20199;-63
2022/04/20 02:59:08;;;;;;;5.93;3.80;;;;;;;4.44;100.00;99320.97;5112541;28;20218;-63
2022/04/20 03:01:35;;;;;;;7.97;4.33;;;;;;;4.43;100.00;99321.81;5112322;28;20662;-63
2022/04/20 03:04:04;;;;;;;4.33;4.13;;;;;;;4.40;100.00;99326.91;5112199;28;20650;-63
2022/04/20 03:06:31;;;;;;;4.93;4.53;;;;;;;4.38;100.00;99333.72;5112269;28;20199;-63
2022/04/20 03:08:58;;;;;;;5.50;4.23;;;;;;;4.36;100.00;99336.28;5111076;28;20199;-63
2022/04/20 03:11:26;;;;;;;4.20;4.00;;;;;;;4.35;100.00;99339.66;5112290;28;20665;-63
2022/04/20 03:13:54;;;;;;;4.67;4.30;;;;;;;4.27;100.00;99326.16;5111841;28;20285;-63
2022/04/20 03:16:21;;;;;;;4.13;3.93;;;;;;;4.36;100.00;99340.50;5109471;28;20210;-63
2022/04/20 03:18:48;;;;;;;4.33;4.10;;;;;;;4.33;100.00;99332.91;5111998;28;20289;-63
2022/04/20 03:21:16;;;;;;;4.50;4.30;;;;;;;4.34;100.00;99337.13;5111928;28;20195;-63
2022/04/20 03:23:43;;;;;;;4.73;4.43;;;;;;;4.34;100.00;99337.13;5111915;28;20201;-63
2022/04/20 03:26:10;;;;;;;5.50;5.20;;;;;;;4.33;100.00;99335.44;5112000;28;20199;-63
2022/04/20 03:28:37;;;;;;;4.47;4.17;;;;;;;4.31;100.00;99337.97;5112233;28;20260;-63
2022/04/20 03:31:04;;;;;;;4.50;4.30;;;;;;;4.32;100.00;99337.13;5111376;28;20198;-63
2022/04/20 03:33:32;;;;;;;5.00;4.70;;;;;;;4.29;100.00;99338.84;5112004;28;20198;-63
2022/04/20 03:35:59;;;;;;;5.10;4.80;;;;;;;4.27;100.00;99350.69;5111490;28;20773;-63
2022/04/20 03:38:27;;;;;;;5.10;4.80;;;;;;;4.23;100.00;99345.63;5112313;27;20190;-63
2022/04/20 03:40:54;;;;;;;4.77;4.47;;;;;;;4.23;100.00;99345.63;5110670;28;20754;-63
2022/04/20 03:43:21;;;;;;;5.67;5.00;;;;;;;4.22;100.00;99348.19;5111247;28;20281;-63
2022/04/20 03:45:48;;;;;;;4.87;4.57;;;;;;;4.19;100.00;99349.06;5110507;28;20278;-63
2022/04/20 03:48:15;;;;;;;5.03;4.73;;;;;;;4.19;100.00;99350.75;5110237;28;20195;-63
2022/04/20 03:50:42;;;;;;;5.50;5.07;;;;;;;4.17;100.00;99354.97;5111472;28;20282;-63
2022/04/20 03:53:08;;;;;;;5.60;4.67;;;;;;;4.09;100.00;99352.50;5111402;28;20290;-63
2022/04/20 03:55:37;;;;;;;5.00;4.70;;;;;;;4.15;100.00;99372.75;5111135;28;20221;-63
2022/04/20 03:58:04;;;;;;;4.37;4.07;;;;;;;4.03;100.00;99362.66;5110383;28;20713;-63
2022/04/20 04:00:31;;;;;;;4.47;4.07;;;;;;;4.07;100.00;99371.91;5109391;28;20585;-63
2022/04/20 04:02:58;;;;;;;55.73;21.63;;;;;;;4.10;100.00;99378.69;5110272;28;20207;-63
2022/04/20 04:05:25;;;;;;;64.73;27.70;;;;;;;4.10;100.00;99376.97;5109691;28;20228;-63
2022/04/20 04:07:52;;;;;;;42.43;20.47;;;;;;;4.09;100.00;99366.84;5109398;28;20210;-63
2022/04/20 04:10:19;;;;;;;14.47;11.07;;;;;;;4.09;100.00;99367.72;5108583;28;20286;-63
2022/04/20 04:12:48;;;;;;;5.80;5.40;;;;;;;4.13;100.00;99364.31;5110879;28;20289;-63
2022/04/20 04:15:14;;;;;;;4.67;4.37;;;;;;;4.01;100.00;99343.22;5110999;28;20219;-63
2022/04/20 04:17:41;;;;;;;5.00;4.70;;;;;;;4.20;100.00;99362.59;5111455;28;20206;-63
2022/04/20 04:20:10;;;;;;;4.87;4.57;;;;;;;4.28;100.00;99363.38;5111070;28;20194;-63
2022/04/20 04:22:37;;;;;;;4.70;4.40;;;;;;;4.34;100.00;99362.47;5111111;28;20670;-63
2022/04/20 04:25:05;;;;;;;53.40;20.50;;;;;;;4.37;100.00;99372.63;5111021;28;20252;-63
2022/04/20 04:27:32;;;;;;;61.37;23.17;;;;;;;4.39;100.00;99370.94;5110949;28;20574;-63
2022/04/20 04:30:01;;;;;;;49.73;20.53;;;;;;;4.50;100.00;99379.31;5110791;28;20674;-63
2022/04/20 04:32:29;;;;;;;11.97;9.83;;;;;;;4.64;100.00;99377.53;5110195;28;20201;-63
2022/04/20 04:34:56;;;;;;;7.43;6.07;;;;;;;4.74;100.00;99374.09;5111358;28;20199;-63
2022/04/20 04:37:24;;;;;;;7.53;6.83;;;;;;;4.94;100.00;99377.31;5111133;28;20202;-63
2022/04/20 04:39:51;;;;;;;7.37;6.73;;;;;;;5.13;100.00;99378.84;5110021;28;20222;-63
2022/04/20 04:42:18;;;;;;;13.93;7.63;;;;;;;5.33;100.00;99375.28;5111126;28;20285;-63
2022/04/20 04:44:44;;;;;;;10.80;8.77;;;;;;;5.53;100.00;99374.22;5111013;28;20195;-63
2022/04/20 04:49:58;;;;;;;26.80;12.27;;;;;;;5.89;100.00;99373.00;5108600;28;20300;-63
2022/04/20 04:52:25;;;;;;;21.70;11.83;;;;;;;5.95;100.00;99364.44;5108095;28;20199;-63
2022/04/20 04:54:52;;;;;;;22.23;12.43;;;;;;;6.08;100.00;99368.50;5110860;28;20202;-63
2022/04/20 04:57:19;;;;;;;21.23;10.10;;;;;;;6.31;100.00;99376.69;5112198;28;20290;-63
2022/04/20 04:59:45;;;;;;;22.30;12.37;;;;;;;6.44;100.00;99382.47;5114804;28;20289;-63
2022/04/20 05:02:14;;;;;;;22.80;12.60;;;;;;;6.63;100.00;99383.88;5114686;28;20204;-63
2022/04/20 05:04:41;;;;;;;13.57;11.00;;;;;;;6.83;100.00;99386.97;5114526;28;20299;-63
2022/04/20 05:07:09;;;;;;;13.70;9.60;;;;;;;7.07;100.00;99390.88;5114352;28;20202;-63
2022/04/20 05:09:36;;;;;;;14.93;9.60;;;;;;;7.26;100.00;99387.16;5114240;28;20218;-63
2022/04/20 05:12:03;;;;;;;15.13;9.87;;;;;;;7.44;98.95;99386.81;5113382;28;20206;-63
2022/04/20 05:14:30;;;;;;;13.83;9.97;;;;;;;7.50;97.74;99393.50;5113887;28;20198;-63
2022/04/20 05:16:59;;;;;;;13.57;10.17;;;;;;;7.75;98.59;99387.94;5113457;28;20729;-63
2022/04/20 05:19:29;;;;;;;14.57;9.83;;;;;;;7.92;97.45;99379.94;5113749;28;20750;-63
2022/04/20 05:21:57;;;;;;;9.90;8.90;;;;;;;8.00;95.70;99378.09;5114030;28;20297;-63
2022/04/20 05:24:24;;;;;;;14.00;9.27;;;;;;;8.14;95.28;99388.84;5114415;28;20207;-63
2022/04/20 05:26:51;;;;;;;10.17;9.33;;;;;;;8.29;95.85;99386.03;5113184;28;20210;-63
2022/04/20 05:29:19;;;;;;;11.47;10.13;;;;;;;8.46;96.51;99385.66;5113268;28;20648;-63
2022/04/20 05:31:46;;;;;;;11.47;9.37;;;;;;;8.72;95.98;99382.53;5113311;28;20213;-63
2022/04/20 05:34:13;;;;;;;11.03;10.20;;;;;;;8.83;95.57;99383.09;5111933;28;20611;-63
2022/04/20 05:42:10;;;;;;;9.40;8.70;;;;;;;8.58;91.28;99369.22;5112883;28;20708;-63
2022/04/20 05:44:37;;;;;;;9.80;9.00;;;;;;;8.47;93.13;99368.59;5109661;28;20209;-63
2022/04/20 05:47:04;;;;;;;15.83;10.80;;;;;;;8.56;93.53;99370.97;5112076;28;20198;-64
2022/04/20 05:49:31;;;;;;;12.17;10.63;;;;;;;8.55;94.73;99366.72;5113336;28;20701;-63
2022/04/20 05:52:00;;;;;;;11.57;9.27;;;;;;;8.57;94.33;99375.19;5113113;28;20214;-64
2022/04/20 05:54:27;;;;;;;11.53;10.40;;;;;;;8.49;95.29;99377.09;5112479;28;20198;-65
2022/04/20 05:56:54;;;;;;;10.60;9.53;;;;;;;8.25;95.12;99384.38;5110521;28;20313;-64
2022/04/20 05:59:20;;;;;;;15.23;9.60;;;;;;;8.19;95.99;99384.50;5110457;28;20287;-64
2022/04/20 06:01:48;;;;;;;9.97;9.00;;;;;;;8.24;95.26;99372.47;5113502;28;20751;-65
2022/04/20 06:04:15;;;;;;;11.57;9.70;;;;;;;8.06;96.72;99359.25;5113461;28;20696;-64
2022/04/20 06:06:42;;;;;;;9.77;8.97;;;;;;;7.97;96.41;99352.63;5114333;27;20205;-64
2022/04/20 06:09:11;;;;;;;12.60;8.20;;;;;;;7.85;97.84;99348.59;5107320;28;20285;-64
2022/04/20 06:11:38;;;;;;;9.23;8.60;;;;;;;7.79;99.19;99342.78;5113318;28;20195;-64
2022/04/20 06:14:04;;;;;;;10.00;9.20;;;;;;;7.81;99.41;99341.91;5113438;28;20294;-65
2022/04/20 06:16:31;;;;;;;13.00;10.20;;;;;;;7.65;99.90;99335.41;5112259;28;20211;-67
2022/04/20 06:18:59;;;;;;;9.80;8.87;;;;;;;7.70;100.00;99335.31;5113301;28;20698;-65
2022/04/20 06:21:26;;;;;;;11.40;9.50;;;;;;;7.76;100.00;99342.84;5112929;27;20274;-63
2022/04/20 06:23:53;;;;;;;12.43;9.17;;;;;;;7.85;100.00;99327.38;5112615;28;20226;-64
2022/04/20 06:26:21;;;;;;;10.40;9.37;;;;;;;7.90;100.00;99315.34;5112353;28;20201;-65
2022/04/20 06:28:48;;;;;;;10.13;9.23;;;;;;;7.83;99.35;99318.88;5110227;28;22582;-64
2022/04/20 06:31:15;;;;;;;9.87;9.17;;;;;;;7.79;100.00;99319.81;5113421;28;20194;-65
2022/04/20 06:33:42;;;;;;;8.73;7.87;;;;;;;7.89;100.00;99318.75;5113040;28;20289;-64
2022/04/20 06:36:09;;;;;;;10.80;9.20;;;;;;;7.90;99.19;99315.34;5113369;28;20215;-65
2022/04/20 06:38:36;;;;;;;10.40;9.40;;;;;;;7.94;100.00;99316.97;5112268;28;20639;-65
2022/04/20 06:41:03;;;;;;;11.17;10.23;;;;;;;8.00;100.00;99321.94;5113188;28;20282;-65
2022/04/20 06:43:31;;;;;;;10.67;9.67;;;;;;;8.03;99.92;99326.97;5113147;28;20298;-65
2022/04/20 06:45:58;;;;;;;10.13;9.17;;;;;;;8.12;100.00;99329.31;5112992;28;20234;-64
2022/04/20 06:48:27;;;;;;;10.57;9.57;;;;;;;8.16;100.00;99330.94;5112486;28;20230;-64
2022/04/20 06:50:54;;;;;;;9.87;8.97;;;;;;;8.19;100.00;99336.00;5113013;28;20207;-65
2022/04/20 06:58:52;;;;;;;12.43;9.83;;;;;;;8.25;100.00;99340.13;5112637;28;20298;-64
2022/04/20 07:01:19;;;;;;;10.43;9.43;;;;;;;8.32;100.00;99349.38;5110167;28;20228;-64
2022/04/20 07:03:46;;;;;;;11.27;10.20;;;;;;;8.36;100.00;99341.59;5112607;28;20281;-64
2022/04/20 07:06:12;;;;;;;11.53;10.37;;;;;;;8.39;100.00;99345.81;5108953;28;20615;-64
2022/04/20 07:08:40;;;;;;;10.37;9.50;;;;;;;8.32;100.00;99342.53;5112027;28;20286;-64
2022/04/20 07:11:07;;;;;;;11.63;8.87;;;;;;;8.18;100.00;99336.84;5112015;28;20635;-65
2022/04/20 07:13:34;;;;;;;11.67;10.47;;;;;;;8.25;100.00;99335.00;5110696;28;20598;-65
2022/04/20 07:16:02;;;;;;;9.63;8.77;;;;;;;8.28;100.00;99333.25;5111904;28;20310;-65
2022/04/20 07:18:29;;;;;;;19.97;15.90;;;;;;;8.10;100.00;99333.63;5111721;28;20217;-65
2022/04/20 07:20:56;;;;;;;12.97;11.87;;;;;;;7.99;100.00;99335.56;5112189;28;20258;-64
2022/04/20 07:23:23;;;;;;;14.03;11.47;;;;;;;8.00;100.00;99332.16;5110916;28;20670;-64
2022/04/20 07:25:50;;;;;;;10.63;9.63;;;;;;;7.99;100.00;99329.63;5111175;28;20285;-64
2022/04/20 07:28:17;;;;;;;10.60;9.60;;;;;;;8.05;100.00;99335.44;5112042;28;20753;-64
2022/04/20 07:30:44;;;;;;;11.30;10.20;;;;;;;8.10;100.00;99337.91;5111859;28;20281;-64
2022/04/20 07:33:14;;;;;;;13.00;9.97;;;;;;;8.16;100.00;99337.75;5111561;28;20289;-64
2022/04/20 07:35:41;;;;;;;10.47;9.43;;;;;;;8.06;100.00;99334.56;5111777;28;20289;-64
2022/04/20 07:38:08;;;;;;;11.27;10.13;;;;;;;8.10;100.00;99325.97;5109151;28;20294;-64
2022/04/20 07:40:35;;;;;;;10.00;9.03;;;;;;;8.10;100.00;99333.63;5110303;28;20308;-64
2022/04/20 07:43:02;;;;;;;11.00;9.33;;;;;;;8.04;100.00;99326.13;5111609;28;20221;-64
2022/04/20 07:45:29;;;;;;;10.70;9.83;;;;;;;8.09;100.00;99328.56;5111405;28;20294;-64
2022/04/20 07:47:57;;;;;;;10.87;9.87;;;;;;;8.15;100.00;99320.75;5110284;28;20238;-64
2022/04/20 07:50:26;;;;;;;13.37;10.87;;;;;;;8.21;100.00;99321.47;5111640;28;20536;-64
2022/04/20 07:52:55;;;;;;;12.97;11.67;;;;;;;8.15;100.00;99310.53;5110983;28;20203;-70
2022/04/20 07:55:25;;;;;;;12.60;11.43;;;;;;;8.15;100.00;99306.28;5111160;28;20248;-64
2022/04/20 07:57:53;;;;;;;12.07;10.83;;;;;;;8.20;100.00;99306.19;5110145;28;20230;-64
2022/04/20 08:00:22;;;;;;;12.03;10.87;;;;;;;8.24;100.00;99321.41;5111131;28;20627;-64
2022/04/20 08:02:49;;;;;;;10.73;9.73;;;;;;;8.18;100.00;99318.13;5111436;28;20283;-65
2022/04/20 08:05:19;;;;;;;10.67;9.87;;;;;;;8.24;100.00;99341.81;5111187;28;20616;-65
2022/04/20 08:07:47;;;;;;;11.60;10.53;;;;;;;8.18;100.00;99330.91;5110911;28;20593;-64
2022/04/20 08:10:14;;;;;;;11.87;10.67;;;;;;;8.21;100.00;99338.50;5111129;28;20210;-64
2022/04/20 08:12:43;;;;;;;13.13;11.83;;;;;;;8.12;100.00;99333.59;5111113;28;20285;-64
2022/04/20 08:15:11;;;;;;;14.23;12.27;;;;;;;8.12;100.00;99336.16;5111100;28;20290;-64
2022/04/20 08:17:39;;;;;;;15.77;12.40;;;;;;;8.20;100.00;99330.03;5110868;28;20694;-64
2022/04/20 08:20:08;;;;;;;12.30;11.03;;;;;;;8.29;100.00;99329.00;5111165;28;20587;-65
2022/04/20 08:22:41;;;;;;;13.27;11.80;;;;;;;8.31;100.00;99337.44;5110392;28;20198;-64
2022/04/20 08:25:12;;;;;;;14.63;12.87;;;;;;;8.26;100.00;99319.66;5111558;28;20209;-64
2022/04/20 08:27:39;;;;;;;15.47;11.53;;;;;;;8.15;100.00;99306.28;5111263;28;20198;-64
2022/04/20 08:30:07;;;;;;;16.27;12.20;;;;;;;8.15;100.00;99331.81;5111319;28;20190;-64
2022/04/20 08:32:35;;;;;;;18.73;12.60;;;;;;;8.13;100.00;99328.47;5112164;28;20275;-64
2022/04/20 08:35:02;;;;;;;18.33;12.40;;;;;;;8.10;100.00;99328.53;5115265;28;20577;-64
2022/04/20 08:37:29;;;;;;;22.30;16.07;;;;;;;8.06;100.00;99336.28;5115098;28;20597;-64
2022/04/20 08:39:56;;;;;;;16.60;13.67;;;;;;;8.14;100.00;99327.56;5114175;28;20222;-64
2022/04/20 08:42:26;;;;;;;21.30;14.47;;;;;;;8.15;100.00;99342.03;5114144;28;20286;-65
2022/04/20 08:45:01;;;;;;;16.60;14.40;;;;;;;8.09;100.00;99342.16;5113255;28;20207;-64
2022/04/20 08:47:29;;;;;;;14.67;13.10;;;;;;;8.18;100.00;99320.69;5112589;28;20202;-66
2022/04/20 08:49:58;;;;;;;17.47;14.77;;;;;;;8.17;100.00;99314.78;5112518;28;20206;-67
2022/04/20 08:52:38;;;;;;;17.97;13.77;;;;;;;8.21;100.00;99308.69;5111391;28;20289;-67
2022/04/20 08:55:07;;;;;;;15.67;12.00;;;;;;;8.23;100.00;99314.63;5113572;28;20651;-65
2022/04/20 08:57:37;;;;;;;19.43;14.37;;;;;;;8.26;100.00;99309.44;5114688;28;20225;-67
2022/04/20 09:00:06;;;;;;;16.43;13.37;;;;;;;8.06;100.00;99296.28;5113814;28;20210;-65
2022/04/20 09:02:32;;;;;;;21.00;13.50;;;;;;;8.04;100.00;99305.69;5111537;28;20281;-63
2022/04/20 09:05:00;;;;;;;20.43;14.03;;;;;;;8.00;100.00;99300.66;5114283;28;20293;-64
2022/04/20 09:07:27;;;;;;;19.80;13.33;;;;;;;8.01;100.00;99303.22;5111338;28;20281;-64
2022/04/20 09:09:53;;;;;;;20.90;14.57;;;;;;;8.14;100.00;99298.66;5114293;28;20282;-64
2022/04/20 09:12:23;;;;;;;25.23;15.50;;;;;;;8.23;100.00;99306.13;5112985;28;20289;-63
2022/04/20 09:14:53;;;;;;;17.80;15.00;;;;;;;8.25;100.00;99302.66;5110794;28;20199;-63
2022/04/20 09:17:22;;;;;;;24.53;16.83;;;;;;;8.27;100.00;99306.00;5113508;28;20214;-63
2022/04/20 09:19:52;;;;;;;22.60;16.10;;;;;;;8.33;100.00;99303.38;5111453;28;20195;-63
2022/04/20 09:22:21;;;;;;;23.67;15.57;;;;;;;8.39;100.00;99308.34;5110594;28;20222;-63
2022/04/20 09:25:05;;;;;;;26.77;17.37;;;;;;;8.47;100.00;99312.41;5114185;28;20633;-63
2022/04/20 09:27:33;;;;;;;20.57;15.50;;;;;;;8.53;100.00;99317.41;5113027;28;20209;-63
2022/04/20 09:30:02;;;;;;;20.90;15.85;;;;;;;8.59;100.00;99302.78;5112915;28;20458;-66
2022/04/20 09:32:47;;;;;;;27.17;19.88;;;;;;;8.75;100.00;99298.13;5111890;28;20510;-61
2022/04/20 09:35:16;;;;;;;23.07;16.70;;;;;;;8.74;100.00;99296.44;5113050;28;20281;-61
2022/04/20 09:37:44;;;;;;;18.10;14.60;;;;;;;8.76;100.00;99294.66;5112900;28;20226;-61
2022/04/20 09:40:13;;;;;;;17.87;14.20;;;;;;;8.75;100.00;99288.75;5112504;28;20698;-62
2022/04/20 09:43:00;;;;;;;22.10;16.73;;;;;;;8.79;100.00;99295.44;5111820;28;20442;-65
2022/04/20 09:45:28;;;;;;;19.67;15.17;;;;;;;8.81;100.00;99285.19;5112835;28;20289;-67
2022/04/20 09:50:40;;;;;;;24.03;15.50;;;;;;;8.60;100.00;99283.13;5112525;28;20290;-67
2022/04/20 09:53:10;;;;;;;17.13;14.07;;;;;;;8.38;100.00;99260.66;5112587;28;20281;-67
2022/04/20 09:55:39;;;;;;;20.07;13.83;;;;;;;8.62;100.00;99272.03;5111220;28;20718;-70
2022/04/20 09:58:17;;;;;;;25.65;19.35;;;;;;;8.69;100.00;99267.59;5110474;28;20446;-64
2022/04/20 10:00:49;;;;;;;48.43;27.03;;;;;;;8.75;100.00;99270.00;5110703;28;20206;-63
2022/04/20 10:03:26;;;;;;;33.60;20.90;;;;;;;8.83;100.00;99265.53;5110913;28;20202;-64
2022/04/20 10:05:53;;;;;;;20.50;15.67;;;;;;;8.92;100.00;99265.28;5112340;28;20570;-63
2022/04/20 10:08:21;;;;;;;20.37;15.27;;;;;;;8.94;100.00;99255.88;5111396;28;20726;-64
2022/04/20 10:10:49;;;;;;;24.25;19.60;;;;;;;8.91;100.00;99256.81;5109782;28;20442;-66
2022/04/20 10:13:17;;;;;;;22.70;17.00;;;;;;;8.92;100.00;99245.69;5110075;28;20329;-65
2022/04/20 10:18:34;;;;;;;29.50;20.10;;;;;;;9.10;100.00;99231.59;5109763;28;20321;-65
2022/04/20 10:21:03;;;;;;;22.57;16.97;;;;;;;9.16;100.00;99228.88;5109789;28;20203;-65
2022/04/20 10:23:30;;;;;;;25.23;16.17;;;;;;;9.14;100.00;99220.41;5109306;28;20306;-65
2022/04/20 10:26:00;;;;;;;24.50;16.23;;;;;;;9.23;100.00;99226.97;5111304;28;20202;-66
2022/04/20 10:28:32;;;;;;;24.43;17.10;;;;;;;9.31;100.00;99228.44;5106951;28;20192;-66
2022/04/20 10:31:10;;;;;;;17.60;15.50;;;;;;;9.17;100.00;99225.44;5111315;28;20289;-65
2022/04/20 10:33:42;;;;;;;24.67;15.80;;;;;;;9.09;100.00;99218.84;5110127;28;20658;-65
2022/04/20 10:36:11;;;;;;;24.30;16.10;;;;;;;9.12;100.00;99200.84;5108616;28;20221;-64
2022/04/20 10:38:39;;;;;;;27.67;18.67;;;;;;;9.09;100.00;99206.88;5108642;28;20272;-64
2022/04/20 10:41:10;;;;;;;21.33;15.50;;;;;;;9.17;100.00;99197.31;5110321;28;20614;-65
2022/04/20 10:43:40;;;;;;;21.30;16.47;;;;;;;9.28;100.00;99195.28;5108186;28;20207;-66
2022/04/20 10:46:14;;;;;;;36.67;21.70;;;;;;;9.44;100.00;99204.19;5108953;28;20213;-67
2022/04/20 10:48:58;;;;;;;23.13;16.60;;;;;;;9.59;100.00;99207.19;5107496;28;20198;-67
2022/04/20 10:51:37;;;;;;;30.33;18.93;;;;;;;9.65;100.00;99207.84;5109954;28;20658;-67
2022/04/20 10:54:27;;;;;;;22.73;17.03;;;;;;;9.57;100.00;99207.22;5110631;28;20202;-67
2022/04/20 10:57:13;;;;;;;26.57;17.80;;;;;;;9.36;100.00;99190.78;5110616;28;20559;-68
2022/04/20 10:59:41;;;;;;;29.77;19.07;;;;;;;9.28;100.00;99179.91;5107777;28;20285;-63
2022/04/20 11:02:12;;;;;;;20.53;15.73;;;;;;;9.28;100.00;99167.13;5110344;28;20659;-64
2022/04/20 11:04:43;;;;;;;22.00;16.77;;;;;;;9.34;100.00;99166.94;5109904;28;20694;-66
2022/04/20 11:07:20;;;;;;;23.30;16.57;;;;;;;9.31;100.00;99141.47;5109498;28;20693;-67
2022/04/20 11:09:58;;;;;;;20.43;14.90;;;;;;;9.42;100.00;99159.91;5107926;28;20285;-67
2022/04/20 11:18:42;;;;;;;14.93;12.57;;;;;;;9.69;100.00;99148.03;5108531;28;20227;-66
2022/04/20 11:21:16;;;;;;;18.90;13.57;;;;;;;9.66;100.00;99131.91;5108534;28;20742;-67
2022/04/20 11:23:57;;;;;;;18.17;13.37;;;;;;;9.87;100.00;99144.03;5108084;28;20289;-68
2022/04/20 11:26:28;;;;;;;13.33;11.97;;;;;;;9.65;100.00;99130.22;5109035;28;20582;-66
2022/04/20 11:28:56;;;;;;;16.77;12.80;;;;;;;9.57;100.00;99132.16;5109863;28;20207;-64
2022/04/20 11:31:23;;;;;;;13.37;12.07;;;;;;;9.58;100.00;99137.25;5109373;28;20291;-66
2022/04/20 11:33:52;;;;;;;13.90;11.93;;;;;;;9.53;100.00;99131.44;5109487;28;20285;-65
2022/04/20 11:36:22;;;;;;;12.27;11.03;;;;;;;9.55;100.00;99123.72;5107357;28;20666;-66
2022/04/20 11:38:50;;;;;;;18.23;13.47;;;;;;;9.45;100.00;99124.00;5109147;28;20226;-65
2022/04/20 11:41:18;;;;;;;26.63;16.93;;;;;;;9.43;100.00;99123.19;5107880;28;20244;-66
2022/04/20 11:43:46;;;;;;;23.70;15.77;;;;;;;9.47;100.00;99116.25;5108496;28;20220;-65
2022/04/20 11:46:14;;;;;;;16.23;12.90;;;;;;;9.48;100.00;99106.00;5101004;28;20293;-66
2022/04/20 11:48:51;;;;;;;17.70;13.73;;;;;;;9.62;100.00;99104.72;5109832;28;20203;-66
2022/04/20 11:51:23;;;;;;;16.53;14.00;;;;;;;9.73;100.00;99098.38;5106722;28;20198;-65
2022/04/20 11:53:52;;;;;;;21.93;16.20;;;;;;;9.75;100.00;99095.78;5109642;28;20738;-65
2022/04/20 11:56:32;;;;;;;14.87;12.60;;;;;;;9.51;100.00;99066.69;5109454;28;20256;-66
2022/04/20 11:58:59;;;;;;;18.07;13.60;;;;;;;9.61;100.00;99082.56;5109342;28;20306;-66